Time;durP1;ratioP1;P1;durP2;ratioP2;P2;SDS_P1;SDS_P2;PMS_P1;PMS_P2;Temp;Humidity;BMP_temperature;BMP_pressure;BME280_temperature;BME280_humidity;BME280_pressure;Samples;Min_cycle;Max_cycle;Signal;HPM_P1;HPM_P2
2022/10/06 00:02:21;;;;;;;;;;;;;;;11.90;78.51;98786.63;6125107;23;1948;-77
2022/10/06 00:04:48;;;;;;;;;;;;;;;11.90;78.38;98783.94;6098161;23;1485;-77
2022/10/06 00:07:14;;;;;;;;;;;;;;;11.89;78.31;98776.94;6124225;23;1321;-77
2022/10/06 00:09:41;;;;;;;;;;;;;;;11.89;78.35;98782.31;6122855;23;809;-77
2022/10/06 00:12:07;;;;;;;;;;;;;;;11.89;78.55;98792.31;6124200;23;797;-77
2022/10/06 00:14:34;;;;;;;;;;;;;;;11.89;78.47;98792.31;6124840;23;856;-77
2022/10/06 00:17:00;;;;;;;;;;;;;;;11.89;78.48;98795.81;6124654;23;797;-77
2022/10/06 00:19:27;;;;;;;;;;;;;;;11.89;78.35;98800.41;6125423;23;785;-77
2022/10/06 00:21:53;;;;;;;;;;;;;;;11.89;78.46;98819.28;6098653;23;1952;-77
2022/10/06 00:24:20;;;;;;;;;;;;;;;11.89;78.48;98819.28;6097912;23;1129;-77
2022/10/06 00:26:46;;;;;;;;;;;;;;;11.88;78.43;98823.03;6123534;23;789;-77
2022/10/06 00:29:13;;;;;;;;;;;;;;;11.87;78.36;98827.63;6097736;23;1181;-77
2022/10/06 00:31:39;;;;;;;;;;;;;;;11.88;78.42;98833.81;6123829;23;814;-77
2022/10/06 00:34:06;;;;;;;;;;;;;;;11.87;78.55;98838.41;6124835;23;857;-77
2022/10/06 00:36:33;;;;;;;;;;;;;;;11.88;78.50;98850.00;6099227;23;1198;-77
2022/10/06 00:38:59;;;;;;;;;;;;;;;11.88;78.55;98847.31;6098810;23;850;-77
2022/10/06 00:41:26;;;;;;;;;;;;;;;11.87;78.35;98854.59;6098355;23;1948;-77
2022/10/06 00:43:52;;;;;;;;;;;;;;;11.86;78.29;98858.38;6124160;23;814;-75
2022/10/06 00:46:19;;;;;;;;;;;;;;;11.87;78.40;98856.50;6098186;23;1276;-77
2022/10/06 00:48:45;;;;;;;;;;;;;;;11.87;78.45;98869.97;6125081;23;794;-77
2022/10/06 00:51:13;;;;;;;;;;;;;;;11.85;78.50;98870.25;6127532;23;868;-77
2022/10/06 00:53:39;;;;;;;;;;;;;;;11.85;78.37;98878.34;6100945;23;869;-77
2022/10/06 00:56:05;;;;;;;;;;;;;;;11.85;78.49;98874.78;6100384;23;1409;-77
2022/10/06 00:58:32;;;;;;;;;;;;;;;11.85;78.26;98870.25;6101281;23;1166;-77
2022/10/06 01:00:58;;;;;;;;;;;;;;;11.85;78.45;98880.19;6101089;23;1901;-77
2022/10/06 01:03:26;;;;;;;;;;;;;;;11.83;78.40;98889.38;6101266;23;1190;-77
2022/10/06 01:05:52;;;;;;;;;;;;;;;11.84;78.26;98887.47;6122455;23;1267;-77
2022/10/06 01:08:18;;;;;;;;;;;;;;;11.83;78.29;98881.28;6123118;23;1285;-77
2022/10/06 01:10:45;;;;;;;;;;;;;;;11.82;78.28;98884.22;6098916;23;1221;-77
2022/10/06 01:13:12;;;;;;;;;;;;;;;11.82;78.35;98889.63;6098455;23;856;-77
2022/10/06 01:15:38;;;;;;;;;;;;;;;11.82;78.28;98890.47;6122196;23;825;-77
2022/10/06 01:18:05;;;;;;;;;;;;;;;11.82;78.58;98887.75;6098990;23;1290;-77
2022/10/06 01:20:31;;;;;;;;;;;;;;;11.82;78.27;98892.31;6098626;23;1280;-77
2022/10/06 01:22:58;;;;;;;;;;;;;;;11.81;78.24;98893.41;6097964;23;1894;-77
2022/10/06 01:25:24;;;;;;;;;;;;;;;11.80;78.34;98902.59;6123973;23;769;-77
2022/10/06 01:27:52;;;;;;;;;;;;;;;11.80;78.27;98903.41;6098435;23;1205;-77
2022/10/06 01:30:18;;;;;;;;;;;;;;;11.79;78.10;98907.19;6123660;23;851;-77
2022/10/06 01:32:45;;;;;;;;;;;;;;;11.50;78.19;98863.72;6123954;23;790;-77
2022/10/06 01:35:12;;;;;;;;;;;;;;;11.79;78.08;98907.19;6122294;23;1329;-77
2022/10/06 01:37:38;;;;;;;;;;;;;;;11.79;78.11;98914.44;6098615;23;1338;-77
2022/10/06 01:40:05;;;;;;;;;;;;;;;11.78;78.04;98918.22;6099096;23;1305;-77
2022/10/06 01:42:32;;;;;;;;;;;;;;;11.79;78.02;98922.53;6096940;23;1942;-77
2022/10/06 01:44:59;;;;;;;;;;;;;;;11.79;78.03;98936.00;6123726;23;845;-77
2022/10/06 01:47:25;;;;;;;;;;;;;;;11.77;78.18;98928.22;6124333;23;820;-76
2022/10/06 01:49:52;;;;;;;;;;;;;;;11.77;78.09;98925.50;6097235;23;1633;-77
2022/10/06 01:52:19;;;;;;;;;;;;;;;11.76;78.06;98929.25;6123382;23;965;-76
2022/10/06 01:54:45;;;;;;;;;;;;;;;11.77;78.08;98939.00;6123958;23;982;-77
2022/10/06 01:57:12;;;;;;;;;;;;;;;11.77;78.08;98954.38;6123774;23;777;-77
2022/10/06 01:59:38;;;;;;;;;;;;;;;11.77;77.96;98944.38;6124331;23;829;-77
2022/10/06 02:02:05;;;;;;;;;;;;;;;11.76;78.11;98950.84;6096952;23;1898;-76
2022/10/06 02:04:31;;;;;;;;;;;;;;;11.77;77.94;98944.38;6098951;23;849;-76
2022/10/06 02:06:58;;;;;;;;;;;;;;;11.77;78.17;98948.97;6097048;23;1246;-77
2022/10/06 02:09:24;;;;;;;;;;;;;;;11.77;77.88;98954.38;6095990;23;1319;-77
2022/10/06 02:11:51;;;;;;;;;;;;;;;11.79;77.82;98963.81;6123838;23;928;-77
2022/10/06 02:14:17;;;;;;;;;;;;;;;11.80;77.71;98961.94;6123768;23;837;-77
2022/10/06 02:16:44;;;;;;;;;;;;;;;11.79;77.86;98957.59;6123457;23;747;-77
2022/10/06 02:19:10;;;;;;;;;;;;;;;11.76;77.92;98958.94;6124657;23;773;-77
2022/10/06 02:21:37;;;;;;;;;;;;;;;11.75;77.87;98964.59;6124119;23;1917;-77
2022/10/06 02:24:04;;;;;;;;;;;;;;;11.73;77.93;98966.75;6099766;23;1430;-77
2022/10/06 02:26:30;;;;;;;;;;;;;;;11.74;78.01;98961.09;6125887;23;802;-77
2022/10/06 02:28:57;;;;;;;;;;;;;;;11.78;77.65;98969.47;6125477;23;843;-77
2022/10/06 02:31:23;;;;;;;;;;;;;;;11.75;77.78;98978.09;6126507;23;813;-77
2022/10/06 02:33:50;;;;;;;;;;;;;;;11.74;77.96;98984.56;6125908;23;1027;-77
2022/10/06 02:36:17;;;;;;;;;;;;;;;11.72;77.83;98984.81;6125181;23;790;-77
2022/10/06 02:38:43;;;;;;;;;;;;;;;11.71;77.95;98985.91;6098416;23;1312;-77
2022/10/06 02:41:10;;;;;;;;;;;;;;;11.70;77.85;98996.94;6125814;23;845;-77
2022/10/06 02:43:36;;;;;;;;;;;;;;;11.70;77.88;98991.56;6123469;23;1939;-77
2022/10/06 02:46:03;;;;;;;;;;;;;;;11.71;77.93;99001.28;6100071;23;1505;-77
2022/10/06 02:48:29;;;;;;;;;;;;;;;11.69;77.83;98998.84;6100210;23;1284;-77
2022/10/06 02:50:56;;;;;;;;;;;;;;;11.69;77.89;99008.81;6126165;23;785;-77
2022/10/06 02:53:22;;;;;;;;;;;;;;;11.69;77.69;99012.31;6099997;23;1216;-77
2022/10/06 02:55:49;;;;;;;;;;;;;;;11.69;77.91;99017.72;6125365;23;996;-77
2022/10/06 02:58:15;;;;;;;;;;;;;;;11.69;77.79;99023.09;6124771;23;966;-77
2022/10/06 03:00:42;;;;;;;;;;;;;;;11.69;77.93;99025.81;6125812;23;802;-77
2022/10/06 03:03:08;;;;;;;;;;;;;;;11.69;77.60;99028.50;6098601;23;1901;-77
2022/10/06 03:05:35;;;;;;;;;;;;;;;11.74;77.59;99030.41;6098592;23;1375;-77
2022/10/06 03:08:01;;;;;;;;;;;;;;;11.73;77.42;99039.56;6098958;23;1362;-77
2022/10/06 03:10:28;;;;;;;;;;;;;;;11.74;77.45;99036.63;6124604;23;778;-77
2022/10/06 03:12:55;;;;;;;;;;;;;;;11.74;77.51;99050.09;6125614;23;987;-77
2022/10/06 03:15:21;;;;;;;;;;;;;;;11.76;77.42;99049.81;6099032;23;1529;-77
2022/10/06 03:17:48;;;;;;;;;;;;;;;11.75;77.52;99051.72;6124814;23;1003;-77
2022/10/06 03:20:14;;;;;;;;;;;;;;;11.76;77.33;99056.03;6126071;23;1130;-77
2022/10/06 03:22:41;;;;;;;;;;;;;;;11.75;77.23;99051.72;6099330;23;1934;-77
2022/10/06 03:25:08;;;;;;;;;;;;;;;11.73;77.50;99061.16;6101222;23;876;-77
2022/10/06 03:27:34;;;;;;;;;;;;;;;11.73;77.40;99061.94;6098956;23;1138;-77
2022/10/06 03:30:02;;;;;;;;;;;;;;;11.68;77.57;99059.25;6125000;23;959;-77
2022/10/06 03:32:28;;;;;;;;;;;;;;;11.67;77.70;99067.59;6124304;23;987;-77
2022/10/06 03:34:55;;;;;;;;;;;;;;;11.66;77.44;99065.97;6125573;23;829;-77
2022/10/06 03:37:21;;;;;;;;;;;;;;;11.66;77.65;99060.59;6098489;23;1241;-77
2022/10/06 03:39:48;;;;;;;;;;;;;;;11.65;77.63;99070.56;6099076;23;1232;-77
2022/10/06 03:42:14;;;;;;;;;;;;;;;11.65;77.68;99067.88;6123638;23;1947;-77
2022/10/06 03:44:41;;;;;;;;;;;;;;;11.64;77.35;99081.59;6098797;23;1257;-77
2022/10/06 03:47:08;;;;;;;;;;;;;;;11.66;77.56;99082.16;6122934;23;789;-78
2022/10/06 03:49:34;;;;;;;;;;;;;;;11.68;77.13;99086.22;6099148;23;1190;-77
2022/10/06 03:52:01;;;;;;;;;;;;;;;11.71;77.11;99084.88;6124823;23;1170;-77
2022/10/06 03:54:27;;;;;;;;;;;;;;;11.68;77.30;99090.81;6125292;23;911;-77
2022/10/06 03:56:54;;;;;;;;;;;;;;;11.70;77.17;99094.03;6099706;23;975;-77
2022/10/06 03:59:20;;;;;;;;;;;;;;;11.66;77.34;99093.75;6125047;23;765;-77
2022/10/06 04:01:47;;;;;;;;;;;;;;;11.66;77.28;99095.66;6123543;23;1939;-77
2022/10/06 04:04:13;;;;;;;;;;;;;;;11.63;77.37;99105.06;6125048;23;991;-77
2022/10/06 04:06:40;;;;;;;;;;;;;;;11.61;77.36;99099.13;6098065;23;1275;-77
2022/10/06 04:09:06;;;;;;;;;;;;;;;11.62;77.42;99102.63;6125114;23;1003;-77
2022/10/06 04:11:33;;;;;;;;;;;;;;;11.67;77.19;99110.75;6125171;23;822;-77
2022/10/06 04:14:00;;;;;;;;;;;;;;;11.79;76.68;99108.63;6124563;23;797;-77
2022/10/06 04:16:26;;;;;;;;;;;;;;;11.76;76.65;99103.78;6124749;23;811;-76
2022/10/06 04:18:53;;;;;;;;;;;;;;;11.70;77.02;99097.53;6125341;23;960;-77
2022/10/06 04:21:19;;;;;;;;;;;;;;;11.70;76.79;99102.94;6123590;23;999;-76
2022/10/06 04:23:46;;;;;;;;;;;;;;;11.76;76.71;99104.56;6125329;23;1913;-77
2022/10/06 04:26:12;;;;;;;;;;;;;;;11.85;76.29;99102.22;6123651;23;1004;-77
2022/10/06 04:28:39;;;;;;;;;;;;;;;11.79;76.44;99108.63;6098591;23;1438;-77
2022/10/06 04:31:06;;;;;;;;;;;;;;;11.74;76.73;99101.34;6124529;23;999;-78
2022/10/06 04:33:33;;;;;;;;;;;;;;;11.90;76.19;99112.25;6125045;23;809;-77
2022/10/06 04:35:59;;;;;;;;;;;;;;;11.94;75.88;99111.47;6100146;23;1245;-77
2022/10/06 04:38:27;;;;;;;;;;;;;;;11.89;76.01;99114.13;6099261;23;1122;-77
2022/10/06 04:40:54;;;;;;;;;;;;;;;11.86;76.18;99128.16;6100421;23;1279;-77
2022/10/06 04:43:20;;;;;;;;;;;;;;;11.85;76.28;99114.88;6125918;23;1937;-77
2022/10/06 04:45:47;;;;;;;;;;;;;;;12.04;75.34;99116.88;6126105;23;806;-77
2022/10/06 04:48:14;;;;;;;;;;;;;;;12.09;75.09;99112.56;6127669;23;979;-77
2022/10/06 04:50:40;;;;;;;;;;;;;;;12.18;74.70;99117.22;6128145;23;873;-77
2022/10/06 04:53:07;;;;;;;;;;;;;;;12.35;74.06;99121.56;6126267;23;883;-77
2022/10/06 04:55:33;;;;;;;;;;;;;;;12.26;74.35;99127.50;6127566;23;731;-77
2022/10/06 04:58:00;;;;;;;;;;;;;;;12.48;73.58;99132.69;6126025;23;1254;-77
2022/10/06 05:00:27;;;;;;;;;;;;;;;12.32;73.99;99147.19;6126900;23;825;-77
2022/10/06 05:02:54;;;;;;;;;;;;;;;12.21;74.55;99159.06;6101608;23;1897;-76
2022/10/06 05:05:20;;;;;;;;;;;;;;;12.31;74.05;99159.09;6127018;23;821;-77
2022/10/06 05:07:47;;;;;;;;;;;;;;;12.29;74.11;99166.63;6125837;23;1789;-77
2022/10/06 05:10:14;;;;;;;;;;;;;;;12.61;72.97;99161.06;6122986;23;1261;-77
2022/10/06 05:12:40;;;;;;;;;;;;;;;12.51;73.22;99158.34;6096243;23;1313;-77
2022/10/06 05:15:08;;;;;;;;;;;;;;;12.52;73.25;99164.56;6124741;23;955;-77
2022/10/06 05:17:34;;;;;;;;;;;;;;;12.37;73.65;99162.63;6127675;23;1003;-77
2022/10/06 05:20:01;;;;;;;;;;;;;;;12.22;74.07;99160.69;6100956;23;1130;-76
2022/10/06 05:22:28;;;;;;;;;;;;;;;12.43;73.38;99156.97;6126451;23;1897;-77
2022/10/06 05:24:54;;;;;;;;;;;;;;;12.33;73.68;99164.22;6127525;23;999;-77
2022/10/06 05:27:21;;;;;;;;;;;;;;;12.28;73.84;99165.00;6127229;23;999;-77
2022/10/06 05:29:47;;;;;;;;;;;;;;;12.21;74.11;99167.16;6124704;23;806;-77
2022/10/06 05:32:14;;;;;;;;;;;;;;;12.37;73.73;99170.72;6097690;23;976;-76
2022/10/06 05:34:40;;;;;;;;;;;;;;;12.43;73.30;99177.75;6097844;23;1351;-77
2022/10/06 05:37:07;;;;;;;;;;;;;;;12.41;73.27;99190.69;6123952;23;935;-77
2022/10/06 05:39:33;;;;;;;;;;;;;;;12.47;73.06;99190.47;6123177;23;1108;-77
2022/10/06 05:42:00;;;;;;;;;;;;;;;12.34;73.68;99204.44;6097888;23;988;-77
2022/10/06 05:44:26;;;;;;;;;;;;;;;12.47;72.99;99195.88;6122921;23;1905;-77
2022/10/06 05:46:53;;;;;;;;;;;;;;;12.43;73.21;99197.47;6098808;23;1278;-77
2022/10/06 05:49:19;;;;;;;;;;;;;;;12.40;73.24;99200.69;6122387;23;1086;-77
2022/10/06 05:51:46;;;;;;;;;;;;;;;12.43;73.23;99215.56;6123741;23;777;-77
2022/10/06 05:54:13;;;;;;;;;;;;;;;12.08;74.33;99205.41;6124202;23;948;-76
2022/10/06 05:56:40;;;;;;;;;;;;;;;12.30;73.71;99211.47;6126326;23;972;-77
2022/10/06 05:59:06;;;;;;;;;;;;;;;12.26;73.96;99205.78;6125843;23;932;-77
2022/10/06 06:01:33;;;;;;;;;;;;;;;12.42;73.18;99219.34;6124497;23;987;-77
2022/10/06 06:04:01;;;;;;;;;;;;;;;12.07;74.42;99228.88;6126208;23;1897;-77
2022/10/06 06:06:27;;;;;;;;;;;;;;;12.19;74.08;99242.19;6126130;23;1275;-77
2022/10/06 06:08:54;;;;;;;;;;;;;;;12.15;74.30;99241.09;6100494;23;1323;-77
2022/10/06 06:11:24;;;;;;;;;;;;;;;12.30;73.51;99240.34;6099635;23;1027;-77
2022/10/06 06:13:50;;;;;;;;;;;;;;;12.29;73.41;99226.00;6123241;23;999;-77
2022/10/06 06:16:16;;;;;;;;;;;;;;;12.31;73.40;99233.88;6125311;23;972;-77
2022/10/06 06:18:42;;;;;;;;;;;;;;;12.10;73.96;99241.84;6126712;23;1011;-77
2022/10/06 06:21:08;;;;;;;;;;;;;;;11.99;74.63;99254.47;6124173;23;959;-77
2022/10/06 06:23:35;;;;;;;;;;;;;;;12.05;74.39;99258.00;6125891;23;1937;-77
2022/10/06 06:26:01;;;;;;;;;;;;;;;12.30;73.56;99265.47;6100266;23;976;-76
2022/10/06 06:28:28;;;;;;;;;;;;;;;12.28;73.56;99257.59;6126511;23;1008;-77
2022/10/06 06:30:54;;;;;;;;;;;;;;;12.25;73.43;99258.13;6102131;23;1153;-77
2022/10/06 06:33:21;;;;;;;;;;;;;;;12.15;74.04;99251.88;6128709;23;959;-76
2022/10/06 06:35:48;;;;;;;;;;;;;;;11.95;74.57;99264.16;6102613;23;829;-77
2022/10/06 06:38:14;;;;;;;;;;;;;;;12.06;74.14;99267.75;6128868;23;885;-77
2022/10/06 06:40:41;;;;;;;;;;;;;;;11.89;74.94;99265.22;6100616;23;1075;-77
2022/10/06 06:43:07;;;;;;;;;;;;;;;11.87;74.79;99272.75;6126431;23;1936;-77
2022/10/06 06:45:34;;;;;;;;;;;;;;;11.81;75.18;99274.56;6127914;23;976;-77
2022/10/06 06:48:02;;;;;;;;;;;;;;;11.65;75.65;99278.22;6129133;23;1023;-77
2022/10/06 06:50:28;;;;;;;;;;;;;;;11.76;75.24;99296.09;6128523;23;967;-77
2022/10/06 06:52:55;;;;;;;;;;;;;;;11.84;75.10;99278.63;6128403;23;1030;-77
2022/10/06 06:55:21;;;;;;;;;;;;;;;11.74;75.21;99283.94;6128066;23;1011;-77
2022/10/06 06:57:48;;;;;;;;;;;;;;;11.75;75.22;99286.38;6128855;23;990;-77
2022/10/06 07:00:15;;;;;;;;;;;;;;;11.79;74.90;99302.84;6101254;23;1175;-77
2022/10/06 07:02:41;;;;;;;;;;;;;;;11.76;75.33;99298.78;6128064;23;1941;-77
2022/10/06 07:05:08;;;;;;;;;;;;;;;11.76;75.06;99295.28;6128159;23;1026;-77
2022/10/06 07:07:35;;;;;;;;;;;;;;;11.89;74.62;99294.06;6126816;23;1317;-76
2022/10/06 07:10:02;;;;;;;;;;;;;;;11.66;75.50;99304.09;6099152;23;1244;-77
2022/10/06 07:12:28;;;;;;;;;;;;;;;11.81;75.05;99288.03;6094588;23;1622;-77
2022/10/06 07:25:51;;;;;;;;;;;;;;;11.77;75.01;99332.78;6097558;23;1238;-77
2022/10/06 07:28:18;;;;;;;;;;;;;;;11.72;74.91;99323.84;6123893;23;777;-77
2022/10/06 07:30:45;;;;;;;;;;;;;;;11.72;75.25;99329.25;6124727;23;991;-77
2022/10/06 07:33:13;;;;;;;;;;;;;;;11.70;75.31;99337.56;6096686;23;1027;-77
2022/10/06 07:35:39;;;;;;;;;;;;;;;11.55;75.68;99340.94;6101750;23;1272;-77
2022/10/06 07:38:06;;;;;;;;;;;;;;;11.75;74.96;99342.22;6126715;23;1014;-77
2022/10/06 07:40:33;;;;;;;;;;;;;;;11.87;74.50;99359.06;6102880;23;1150;-77
2022/10/06 07:43:01;;;;;;;;;;;;;;;11.98;74.03;99360.78;6101014;23;1948;-77
2022/10/06 07:45:40;;;;;;;;;;;;;;;11.73;74.81;99363.22;6127990;23;836;-77
2022/10/06 07:48:07;;;;;;;;;;;;;;;11.63;75.28;99365.84;6128068;23;1003;-77
2022/10/06 07:50:34;;;;;;;;;;;;;;;11.96;74.11;99375.59;6126045;23;983;-77
2022/10/06 07:53:03;;;;;;;;;;;;;;;11.78;74.45;99377.56;6100175;23;1011;-77
2022/10/06 07:55:30;;;;;;;;;;;;;;;11.88;74.29;99387.66;6100124;23;1011;-77
2022/10/06 07:57:56;;;;;;;;;;;;;;;11.73;74.75;99384.81;6128403;23;1006;-77
2022/10/06 08:00:25;;;;;;;;;;;;;;;11.68;74.91;99392.88;6102146;23;1152;-77
2022/10/06 08:02:53;;;;;;;;;;;;;;;11.70;75.01;99405.00;6126466;23;1938;-77
2022/10/06 08:05:20;;;;;;;;;;;;;;;11.78;74.60;99396.44;6127686;23;991;-77
2022/10/06 08:07:47;;;;;;;;;;;;;;;11.78;74.48;99401.84;6126652;23;1392;-77
2022/10/06 08:10:13;;;;;;;;;;;;;;;12.09;73.42;99412.13;6127171;23;988;-77
2022/10/06 08:12:40;;;;;;;;;;;;;;;11.78;74.46;99418.03;6101837;23;1030;-77
2022/10/06 08:15:06;;;;;;;;;;;;;;;11.81;74.41;99427.50;6126729;23;948;-77
2022/10/06 08:17:33;;;;;;;;;;;;;;;11.49;75.47;99433.63;6100998;23;968;-78
2022/10/06 08:19:59;;;;;;;;;;;;;;;11.62;75.22;99437.00;6127528;23;972;-77
2022/10/06 08:22:28;;;;;;;;;;;;;;;11.75;74.62;99437.44;6127651;23;1015;-77
2022/10/06 08:24:55;;;;;;;;;;;;;;;11.96;73.73;99443.06;6124941;23;1889;-77
2022/10/06 08:27:23;;;;;;;;;;;;;;;11.97;73.72;99439.28;6102340;23;957;-77
2022/10/06 08:29:49;;;;;;;;;;;;;;;11.28;75.29;99402.13;6126590;23;1023;-77
2022/10/06 08:32:17;;;;;;;;;;;;;;;11.75;74.63;99439.31;6098626;23;1268;-77
2022/10/06 08:34:43;;;;;;;;;;;;;;;11.69;74.64;99440.34;6101269;23;996;-77
2022/10/06 08:37:10;;;;;;;;;;;;;;;11.79;74.25;99457.44;6101912;23;1027;-77
2022/10/06 08:39:36;;;;;;;;;;;;;;;11.66;74.93;99443.53;6126583;23;1022;-77
2022/10/06 08:42:03;;;;;;;;;;;;;;;11.54;75.29;99463.38;6101862;23;948;-77
2022/10/06 08:44:29;;;;;;;;;;;;;;;11.59;75.17;99462.63;6101778;23;1943;-77
2022/10/06 08:46:56;;;;;;;;;;;;;;;11.79;74.18;99453.91;6127320;23;995;-77
2022/10/06 08:49:22;;;;;;;;;;;;;;;11.79;74.30;99452.06;6125985;23;956;-77
2022/10/06 08:51:49;;;;;;;;;;;;;;;11.86;74.04;99459.97;6101542;23;979;-77
2022/10/06 08:54:15;;;;;;;;;;;;;;;11.72;74.68;99458.72;6098410;23;1126;-77
2022/10/06 08:56:47;;;;;;;;;;;;;;;11.51;75.36;99463.06;6099926;23;1110;-77
2022/10/06 08:59:15;;;;;;;;;;;;;;;11.49;75.37;99463.31;6126277;23;1161;-77
2022/10/06 09:01:41;;;;;;;;;;;;;;;11.64;74.95;99478.03;6127448;23;947;-77
2022/10/06 09:04:08;;;;;;;;;;;;;;;11.75;74.60;99475.19;6099378;23;1897;-77
2022/10/06 09:06:34;;;;;;;;;;;;;;;11.72;74.39;99478.41;6101106;23;1195;-77
2022/10/06 09:09:01;;;;;;;;;;;;;;;11.72;74.50;99467.59;6124350;23;1027;-77
2022/10/06 09:11:27;;;;;;;;;;;;;;;11.85;73.89;99474.50;6125881;23;987;-77
2022/10/06 09:13:54;;;;;;;;;;;;;;;11.57;74.86;99492.53;6099775;23;1296;-77
2022/10/06 09:16:20;;;;;;;;;;;;;;;11.44;75.20;99503.72;6124156;23;983;-77
2022/10/06 09:18:48;;;;;;;;;;;;;;;11.46;75.25;99511.53;6125997;23;952;-77
2022/10/06 09:21:14;;;;;;;;;;;;;;;11.65;74.76;99507.47;6125789;23;967;-77
2022/10/06 09:23:47;;;;;;;;;;;;;;;11.86;73.77;99529.31;6094959;23;1936;-77
2022/10/06 09:26:14;;;;;;;;;;;;;;;11.93;73.14;99525.31;6093250;23;1150;-77
2022/10/06 09:28:40;;;;;;;;;;;;;;;11.91;73.50;99527.47;6122668;23;837;-77
2022/10/06 09:31:07;;;;;;;;;;;;;;;11.62;74.52;99548.41;6125027;23;979;-77
2022/10/06 09:33:33;;;;;;;;;;;;;;;11.63;74.40;99541.13;6098069;23;1282;-77
2022/10/06 09:36:05;;;;;;;;;;;;;;;11.79;73.93;99554.56;6125657;23;947;-77
2022/10/06 09:38:34;;;;;;;;;;;;;;;11.70;74.25;99563.31;6126615;23;960;-77
2022/10/06 09:41:00;;;;;;;;;;;;;;;11.63;74.43;99558.13;6101222;23;1261;-77
2022/10/06 09:43:27;;;;;;;;;;;;;;;11.66;74.46;99557.63;6124917;23;1901;-77
2022/10/06 09:45:53;;;;;;;;;;;;;;;11.45;75.11;99567.34;6124055;23;872;-77
2022/10/06 09:48:21;;;;;;;;;;;;;;;11.62;74.76;99563.75;6123072;23;905;-77
2022/10/06 09:50:47;;;;;;;;;;;;;;;11.59;74.77;99565.09;6124732;23;837;-77
2022/10/06 09:53:17;;;;;;;;;;;;;;;11.60;74.58;99567.53;6124868;23;928;-77
2022/10/06 09:55:43;;;;;;;;;;;;;;;11.67;74.55;99566.53;6122636;23;936;-77
2022/10/06 09:58:10;;;;;;;;;;;;;;;11.68;74.04;99570.88;6097994;23;844;-77
2022/10/06 10:00:37;;;;;;;;;;;;;;;11.72;73.82;99562.00;6124097;23;781;-77
2022/10/06 10:03:03;;;;;;;;;;;;;;;11.64;74.35;99573.22;6123850;23;872;-77
2022/10/06 10:05:30;;;;;;;;;;;;;;;11.65;74.11;99590.22;6124405;23;1898;-77
2022/10/06 10:07:56;;;;;;;;;;;;;;;11.84;73.22;99594.25;6122547;23;1364;-78
2022/10/06 10:10:23;;;;;;;;;;;;;;;11.62;73.94;99610.44;6100944;23;881;-77
2022/10/06 10:12:49;;;;;;;;;;;;;;;11.68;73.63;99628.31;6099465;23;865;-77
2022/10/06 10:15:16;;;;;;;;;;;;;;;11.83;73.00;99633.09;6126155;23;828;-77
2022/10/06 10:17:42;;;;;;;;;;;;;;;11.77;73.13;99629.53;6127355;23;817;-77
2022/10/06 10:20:09;;;;;;;;;;;;;;;11.91;73.09;99638.09;6123899;23;821;-77
2022/10/06 10:22:36;;;;;;;;;;;;;;;11.84;73.32;99653.63;6125961;23;845;-77
2022/10/06 10:25:03;;;;;;;;;;;;;;;11.83;73.32;99650.09;6127312;23;1889;-77
2022/10/06 10:27:30;;;;;;;;;;;;;;;11.70;73.92;99668.53;6127555;23;873;-77
2022/10/06 10:30:00;;;;;;;;;;;;;;;11.89;73.25;99664.50;6126503;23;991;-77
2022/10/06 10:32:27;;;;;;;;;;;;;;;11.67;74.27;99669.00;6126697;23;790;-77
2022/10/06 10:34:53;;;;;;;;;;;;;;;11.62;74.24;99683.25;6098383;23;837;-77
2022/10/06 10:37:20;;;;;;;;;;;;;;;11.62;74.51;99677.03;6125467;23;825;-77
2022/10/06 10:39:47;;;;;;;;;;;;;;;11.42;75.12;99677.56;6126295;23;834;-77
2022/10/06 10:42:14;;;;;;;;;;;;;;;11.57;74.35;99673.22;6128739;23;862;-77
2022/10/06 10:44:40;;;;;;;;;;;;;;;11.64;74.31;99670.31;6102298;23;1947;-77
2022/10/06 10:47:07;;;;;;;;;;;;;;;11.43;74.85;99688.09;6129735;23;782;-77
2022/10/06 10:49:33;;;;;;;;;;;;;;;11.49;74.70;99679.00;6127793;23;852;-77
2022/10/06 10:52:00;;;;;;;;;;;;;;;11.69;74.20;99680.38;6127457;23;836;-77
2022/10/06 10:54:27;;;;;;;;;;;;;;;11.36;75.37;99688.25;6127278;23;789;-77
2022/10/06 10:56:53;;;;;;;;;;;;;;;11.24;76.26;99684.03;6128399;23;870;-77
2022/10/06 10:59:20;;;;;;;;;;;;;;;11.35;75.67;99685.78;6129003;23;850;-77
2022/10/06 11:01:46;;;;;;;;;;;;;;;11.23;76.11;99677.78;6101501;23;1372;-77
2022/10/06 11:04:13;;;;;;;;;;;;;;;11.19;76.29;99679.34;6128024;23;1893;-77
2022/10/06 11:06:39;;;;;;;;;;;;;;;11.20;76.10;99689.06;6127614;23;1293;-77
2022/10/06 11:09:06;;;;;;;;;;;;;;;11.17;76.27;99689.56;6126174;23;848;-78
2022/10/06 11:11:33;;;;;;;;;;;;;;;11.21;76.37;99684.53;6127627;23;778;-77
2022/10/06 11:13:59;;;;;;;;;;;;;;;11.25;76.14;99675.69;6128056;23;828;-77
2022/10/06 11:16:26;;;;;;;;;;;;;;;11.17;76.67;99675.28;6125891;23;813;-77
2022/10/06 11:18:52;;;;;;;;;;;;;;;11.14;76.80;99673.88;6121558;23;864;-78
2022/10/06 11:21:19;;;;;;;;;;;;;;;11.13;76.68;99681.16;6117849;23;872;-76
2022/10/06 11:23:45;;;;;;;;;;;;;;;11.21;76.65;99695.28;6122201;23;1957;-76
2022/10/06 11:26:12;;;;;;;;;;;;;;;11.15;76.84;99686.31;6124674;23;745;-76
2022/10/06 11:28:39;;;;;;;;;;;;;;;11.19;76.85;99700.09;6125802;23;800;-76
2022/10/06 11:31:05;;;;;;;;;;;;;;;11.18;76.93;99693.91;6121715;23;868;-76
2022/10/06 11:33:32;;;;;;;;;;;;;;;11.17;76.88;99710.31;6124201;23;836;-77
2022/10/06 11:35:58;;;;;;;;;;;;;;;11.12;77.30;99700.28;6124626;23;813;-76
2022/10/06 11:38:25;;;;;;;;;;;;;;;11.12;77.29;99698.38;6099586;23;1063;-77
2022/10/06 11:40:51;;;;;;;;;;;;;;;11.13;77.31;99693.81;6124789;23;793;-76
2022/10/06 11:43:18;;;;;;;;;;;;;;;11.11;77.20;99693.22;6122193;23;1609;-77
2022/10/06 11:45:44;;;;;;;;;;;;;;;11.11;77.49;99690.53;6098281;23;1934;-76
2022/10/06 11:48:11;;;;;;;;;;;;;;;11.12;77.47;99706.47;6099220;23;1300;-76
2022/10/06 11:50:37;;;;;;;;;;;;;;;11.12;77.43;99709.16;6120773;23;778;-76
2022/10/06 11:53:04;;;;;;;;;;;;;;;11.13;77.36;99709.97;6098282;23;1308;-76
2022/10/06 11:55:30;;;;;;;;;;;;;;;11.22;76.85;99713.09;6120289;23;1541;-76
2022/10/06 11:57:57;;;;;;;;;;;;;;;11.22;76.83;99715.78;6125363;23;786;-77
2022/10/06 12:00:24;;;;;;;;;;;;;;;11.15;77.29;99715.94;6123280;23;817;-76
2022/10/06 12:02:50;;;;;;;;;;;;;;;11.14;77.41;99725.06;6124967;23;809;-77
2022/10/06 12:05:17;;;;;;;;;;;;;;;11.18;77.18;99731.63;6122924;23;1939;-76
2022/10/06 12:07:44;;;;;;;;;;;;;;;11.23;77.06;99731.69;6123096;23;1321;-76
2022/10/06 12:10:10;;;;;;;;;;;;;;;11.24;77.12;99729.84;6124659;23;845;-77
2022/10/06 12:12:36;;;;;;;;;;;;;;;11.18;77.27;99726.25;6125361;23;801;-76
2022/10/06 12:15:02;;;;;;;;;;;;;;;11.17;77.54;99716.50;6123597;23;879;-76
2022/10/06 12:17:29;;;;;;;;;;;;;;;11.19;77.12;99706.31;6124828;23;794;-76
2022/10/06 12:19:56;;;;;;;;;;;;;;;11.24;76.97;99713.69;6122607;23;833;-76
2022/10/06 12:22:22;;;;;;;;;;;;;;;11.18;77.20;99704.69;6120033;23;810;-77
2022/10/06 12:24:49;;;;;;;;;;;;;;;11.37;76.41;99714.16;6120813;23;1945;-77
2022/10/06 12:27:15;;;;;;;;;;;;;;;11.29;76.77;99709.16;6124882;23;840;-77
2022/10/06 12:29:42;;;;;;;;;;;;;;;11.22;77.02;99700.44;6122455;23;828;-76
2022/10/06 12:32:08;;;;;;;;;;;;;;;11.26;77.11;99714.22;6121430;23;813;-76
2022/10/06 12:34:35;;;;;;;;;;;;;;;11.33;76.74;99710.31;6126243;23;817;-76
2022/10/06 12:37:01;;;;;;;;;;;;;;;11.32;76.76;99697.91;6123982;23;836;-77
2022/10/06 12:39:28;;;;;;;;;;;;;;;11.22;77.11;99686.94;6123210;23;1173;-76
2022/10/06 12:41:54;;;;;;;;;;;;;;;11.36;76.64;99709.03;6126456;23;840;-77
2022/10/06 12:44:21;;;;;;;;;;;;;;;11.37;76.79;99702.56;6097888;23;1909;-77
2022/10/06 12:46:48;;;;;;;;;;;;;;;11.28;77.04;99706.72;6122295;23;841;-77
2022/10/06 12:49:14;;;;;;;;;;;;;;;11.27;76.96;99713.19;6121855;23;830;-76
2022/10/06 12:51:41;;;;;;;;;;;;;;;11.25;77.19;99713.41;6124233;23;860;-76
2022/10/06 12:54:08;;;;;;;;;;;;;;;11.25;77.16;99712.59;6122829;23;813;-76
2022/10/06 12:56:35;;;;;;;;;;;;;;;11.27;77.34;99719.38;6124164;23;845;-76
2022/10/06 12:59:02;;;;;;;;;;;;;;;11.35;76.76;99716.28;6125943;23;844;-76
2022/10/06 13:01:28;;;;;;;;;;;;;;;11.29;77.02;99716.44;6125722;23;844;-76
2022/10/06 13:03:55;;;;;;;;;;;;;;;11.34;77.07;99722.72;6119533;23;789;-76
2022/10/06 13:06:22;;;;;;;;;;;;;;;11.32;76.84;99719.47;6123427;23;1901;-76
2022/10/06 13:08:48;;;;;;;;;;;;;;;11.05;77.03;99678.84;6123333;23;1305;-76
2022/10/06 13:11:15;;;;;;;;;;;;;;;11.43;76.46;99722.31;6124357;23;810;-76